Time;durP1;ratioP1;P1;durP2;ratioP2;P2;SDS_P1;SDS_P2;PMS_P1;PMS_P2;Temp;Humidity;BMP_temperature;BMP_pressure;BME280_temperature;BME280_humidity;BME280_pressure;Samples;Min_cycle;Max_cycle;Signal;HPM_P1;HPM_P2
2022/10/28 00:01:02;;;;;;;14.20;5.38;;;18.00;96.70;;;;;;4938847;28;20044;-73
2022/10/28 00:03:31;;;;;;;11.30;5.32;;;18.10;96.70;;;;;;4929645;29;20494;-72
2022/10/28 00:06:03;;;;;;;11.10;4.32;;;18.00;96.70;;;;;;4926665;29;20051;-73
2022/10/28 00:08:32;;;;;;;7.05;4.85;;;17.90;96.70;;;;;;4928095;29;20076;-72
2022/10/28 00:11:07;;;;;;;12.55;5.20;;;17.70;96.70;;;;;;4935859;29;20048;-73
2022/10/28 00:13:36;;;;;;;12.13;4.57;;;17.70;96.70;;;;;;4940955;29;20613;-72
2022/10/28 00:16:06;;;;;;;11.80;4.88;;;17.60;96.70;;;;;;4924457;29;20139;-73
2022/10/28 00:18:34;;;;;;;12.18;4.55;;;17.50;96.70;;;;;;4934547;29;20048;-73
2022/10/28 00:21:03;;;;;;;13.60;5.07;;;17.50;96.70;;;;;;4931975;28;20122;-73
2022/10/28 00:23:31;;;;;;;10.77;4.53;;;17.40;96.70;;;;;;4937627;29;20048;-73
2022/10/28 00:26:09;;;;;;;11.63;5.00;;;17.40;96.70;;;;;;4942780;28;20048;-73
2022/10/28 00:28:40;;;;;;;13.20;5.28;;;17.30;96.70;;;;;;4924618;29;20087;-73
2022/10/28 00:31:10;;;;;;;11.85;4.25;;;17.30;96.70;;;;;;4923943;29;20075;-73
2022/10/28 00:33:38;;;;;;;10.73;4.07;;;17.40;96.70;;;;;;4926843;29;20075;-73
2022/10/28 00:36:08;;;;;;;11.10;5.25;;;17.40;96.70;;;;;;4926213;29;20220;-72
2022/10/28 00:38:36;;;;;;;10.55;4.25;;;17.40;96.70;;;;;;4930718;29;20055;-72
2022/10/28 00:41:12;;;;;;;12.88;5.05;;;17.30;96.70;;;;;;4950043;28;20137;-72
2022/10/28 00:43:42;;;;;;;11.27;4.55;;;17.30;96.70;;;;;;4940376;28;20154;-73
2022/10/28 00:46:17;;;;;;;9.23;4.35;;;17.30;96.70;;;;;;4949391;28;20050;-72
2022/10/28 00:48:48;;;;;;;8.80;4.50;;;17.40;96.70;;;;;;4934433;29;20979;-73
2022/10/28 00:51:17;;;;;;;9.20;4.60;;;17.40;96.70;;;;;;4947515;28;20480;-72
2022/10/28 00:53:47;;;;;;;13.13;4.55;;;17.40;96.70;;;;;;4940324;28;20099;-73
2022/10/28 00:56:17;;;;;;;10.13;4.43;;;17.50;96.70;;;;;;4940635;28;20742;-73
2022/10/28 00:58:47;;;;;;;7.47;4.75;;;17.50;96.70;;;;;;4934713;28;20046;-72
2022/10/28 01:01:16;;;;;;;6.90;4.80;;;17.50;96.70;;;;;;4937482;28;20509;-73
2022/10/28 01:03:44;;;;;;;10.23;4.65;;;17.40;96.70;;;;;;4957686;28;20043;-73
2022/10/28 01:06:12;;;;;;;10.85;4.65;;;17.30;96.70;;;;;;4956799;28;20055;-73
2022/10/28 01:08:40;;;;;;;10.77;5.55;;;17.30;96.70;;;;;;4949367;28;20047;-73
2022/10/28 01:11:26;;;;;;;11.05;5.43;;;17.30;96.70;;;;;;4967074;28;20109;-72
2022/10/28 01:14:14;;;;;;;12.40;6.38;;;17.40;96.70;;;;;;4958853;28;20076;-73
2022/10/28 01:16:57;;;;;;;13.75;5.13;;;17.40;96.70;;;;;;4924490;28;21389;-73
2022/10/28 01:19:57;;;;;;;11.27;5.13;;;17.40;96.70;;;;;;4931205;29;20071;-73
2022/10/28 01:22:29;;;;;;;15.20;5.50;;;17.30;96.70;;;;;;4940175;28;20421;-72
2022/10/28 01:25:19;;;;;;;9.10;4.68;;;17.30;96.70;;;;;;4948779;28;20051;-73
2022/10/28 01:28:16;;;;;;;9.95;4.85;;;17.30;96.70;;;;;;4951088;28;20102;-72
2022/10/28 01:31:17;;;;;;;10.40;5.05;;;17.40;96.70;;;;;;4947773;28;20051;-73
2022/10/28 01:33:52;;;;;;;9.80;4.80;;;17.30;96.70;;;;;;4949432;28;20039;-73
2022/10/28 01:36:28;;;;;;;8.70;5.03;;;17.20;96.70;;;;;;4947448;28;20058;-72
2022/10/28 01:39:00;;;;;;;;;;;17.20;96.70;;;;;;4933431;29;20544;-72
2022/10/28 01:41:32;;;;;;;10.45;4.70;;;17.20;96.70;;;;;;4963760;28;19926;-73
2022/10/28 01:44:07;;;;;;;13.60;5.13;;;17.20;96.70;;;;;;4952419;28;20047;-73
2022/10/28 01:46:40;;;;;;;9.88;4.80;;;17.20;96.70;;;;;;4962373;28;20050;-73
2022/10/28 01:49:13;;;;;;;11.10;5.65;;;17.20;96.70;;;;;;4963623;28;20114;-72
2022/10/28 01:51:44;;;;;;;11.35;5.57;;;17.10;96.70;;;;;;4940392;28;20055;-72
2022/10/28 01:54:15;;;;;;;13.25;5.38;;;17.10;96.70;;;;;;4933735;28;20533;-73
2022/10/28 01:56:44;;;;;;;10.50;5.40;;;17.10;96.70;;;;;;4934926;29;20457;-73
2022/10/28 01:59:16;;;;;;;13.48;5.43;;;17.00;96.70;;;;;;4957059;28;20517;-73
2022/10/28 02:01:45;;;;;;;11.48;5.45;;;16.90;96.70;;;;;;4955977;28;20050;-73
2022/10/28 02:04:18;;;;;;;13.82;5.47;;;17.00;96.70;;;;;;4955397;28;20066;-73
2022/10/28 02:06:50;;;;;;;11.15;5.38;;;17.00;96.70;;;;;;4940044;28;20054;-73
2022/10/28 02:09:26;;;;;;;11.43;5.00;;;17.00;96.70;;;;;;4956042;28;20081;-73
2022/10/28 02:12:02;;;;;;;;;;;17.00;96.70;;;;;;4959095;28;20624;-72
2022/10/28 02:14:40;;;;;;;12.15;5.32;;;17.00;96.70;;;;;;4966951;28;20070;-72
2022/10/28 02:17:20;;;;;;;12.45;5.25;;;17.00;96.70;;;;;;4919763;28;20137;-73
2022/10/28 02:19:55;;;;;;;11.68;6.10;;;16.90;96.70;;;;;;4961181;28;20051;-73
2022/10/28 02:22:29;;;;;;;11.60;5.93;;;16.90;96.70;;;;;;4936517;28;20066;-73
2022/10/28 02:25:05;;;;;;;16.67;5.22;;;16.80;96.70;;;;;;4943997;29;20565;-73
2022/10/28 02:27:41;;;;;;;11.70;5.18;;;16.70;96.70;;;;;;4943698;28;20489;-73
2022/10/28 02:30:14;;;;;;;11.98;5.32;;;16.70;96.70;;;;;;4957762;28;20077;-73
2022/10/28 02:32:47;;;;;;;12.90;5.32;;;16.70;96.70;;;;;;4932883;28;20061;-73
2022/10/28 02:35:21;;;;;;;11.45;4.78;;;16.70;96.70;;;;;;4946882;28;20536;-73
2022/10/28 02:37:52;;;;;;;9.70;5.30;;;16.70;96.70;;;;;;4930662;29;20074;-73
2022/10/28 02:40:23;;;;;;;19.08;6.55;;;16.80;96.70;;;;;;4935793;29;20052;-74
2022/10/28 02:42:55;;;;;;;9.23;5.03;;;16.80;96.70;;;;;;4937231;29;20655;-72
2022/10/28 02:45:27;;;;;;;10.65;5.18;;;16.80;96.70;;;;;;4925763;29;20075;-73
2022/10/28 02:47:58;;;;;;;9.82;5.20;;;16.70;96.70;;;;;;4926533;29;20143;-74
2022/10/28 02:50:35;;;;;;;9.68;4.47;;;16.70;96.70;;;;;;4927704;29;20047;-73
2022/10/28 02:53:17;;;;;;;10.55;5.10;;;16.70;96.70;;;;;;4926248;29;20048;-73
2022/10/28 02:55:50;;;;;;;14.93;4.93;;;16.70;96.70;;;;;;4927799;29;20050;-73
2022/10/28 02:58:18;;;;;;;12.75;5.35;;;16.70;96.70;;;;;;4925864;29;20066;-73
2022/10/28 03:00:48;;;;;;;10.32;4.72;;;16.60;96.70;;;;;;4926249;29;20698;-73
2022/10/28 03:03:17;;;;;;;9.43;4.68;;;16.60;96.70;;;;;;4925949;29;20095;-73
2022/10/28 03:05:45;;;;;;;8.32;4.50;;;16.60;96.70;;;;;;4926584;29;20126;-73
2022/10/28 03:08:13;;;;;;;12.27;5.00;;;16.50;96.70;;;;;;4927562;29;20051;-73
2022/10/28 03:10:41;;;;;;;8.57;4.78;;;16.50;96.70;;;;;;4927430;29;20766;-73
2022/10/28 03:13:09;;;;;;;11.70;4.80;;;16.50;96.70;;;;;;4925570;29;20143;-73
2022/10/28 03:15:37;;;;;;;14.63;4.75;;;16.60;96.70;;;;;;4938255;29;20071;-73
2022/10/28 03:18:05;;;;;;;7.95;4.47;;;16.60;96.70;;;;;;4936116;29;20044;-73
2022/10/28 03:20:49;;;;;;;11.65;5.15;;;16.50;96.70;;;;;;4927545;29;20047;-73
2022/10/28 03:23:19;;;;;;;8.35;5.05;;;16.50;96.70;;;;;;4885710;29;20084;-74
2022/10/28 03:25:47;;;;;;;11.68;4.82;;;16.50;96.70;;;;;;4886798;29;20056;-73
2022/10/28 03:28:15;;;;;;;13.93;5.22;;;16.50;96.70;;;;;;4869645;29;20147;-73
2022/10/28 03:30:43;;;;;;;10.20;5.25;;;16.50;96.70;;;;;;4870967;29;20135;-73
2022/10/28 03:33:11;;;;;;;8.82;5.03;;;16.50;96.70;;;;;;4885438;29;20056;-73
2022/10/28 03:35:39;;;;;;;10.05;4.70;;;16.50;96.70;;;;;;4886872;29;20052;-73
2022/10/28 03:38:08;;;;;;;12.75;5.28;;;16.50;96.70;;;;;;4870981;29;20049;-73
2022/10/28 03:40:36;;;;;;;11.95;4.97;;;16.60;96.70;;;;;;4870237;29;20060;-73
2022/10/28 03:43:09;;;;;;;9.68;4.90;;;16.60;96.70;;;;;;4888190;29;20053;-73
2022/10/28 03:45:37;;;;;;;9.02;4.70;;;16.60;96.70;;;;;;4884135;29;20055;-73
2022/10/28 03:48:05;;;;;;;13.60;5.00;;;16.60;96.70;;;;;;4875618;29;20136;-73
2022/10/28 03:50:34;;;;;;;14.23;5.30;;;16.60;96.70;;;;;;4884015;29;20134;-73
2022/10/28 03:53:02;;;;;;;10.70;5.30;;;16.50;96.70;;;;;;4880919;29;20060;-73
2022/10/28 03:55:31;;;;;;;13.38;4.97;;;16.40;96.70;;;;;;4944274;29;20485;-73
2022/10/28 03:58:00;;;;;;;10.27;4.72;;;16.30;96.70;;;;;;4927828;29;20130;-73
2022/10/28 04:00:28;;;;;;;15.70;5.28;;;16.30;96.70;;;;;;4940196;29;20066;-73
2022/10/28 04:02:56;;;;;;;9.45;4.68;;;16.30;96.70;;;;;;4933764;29;20156;-73
2022/10/28 04:05:24;;;;;;;9.77;4.80;;;16.20;96.70;;;;;;4926860;29;20142;-73
2022/10/28 04:07:53;;;;;;;10.80;4.47;;;16.30;96.70;;;;;;4925685;29;20737;-73
2022/10/28 04:10:20;;;;;;;13.48;5.13;;;16.30;96.70;;;;;;4918418;29;20051;-74
2022/10/28 04:12:50;;;;;;;12.60;5.40;;;16.30;96.70;;;;;;4929327;29;21994;-73
2022/10/28 04:15:18;;;;;;;9.13;5.10;;;16.20;96.70;;;;;;4942827;28;20074;-73
2022/10/28 04:17:46;;;;;;;14.38;5.30;;;16.10;96.70;;;;;;4938708;29;20043;-73
2022/10/28 04:20:14;;;;;;;9.65;4.88;;;16.20;96.70;;;;;;4944666;28;20040;-73
2022/10/28 04:22:41;;;;;;;9.82;5.20;;;16.20;96.70;;;;;;4937106;29;20528;-73
2022/10/28 04:25:09;;;;;;;9.10;4.38;;;16.20;96.70;;;;;;4944767;28;21165;-74
2022/10/28 04:27:37;;;;;;;11.45;5.15;;;16.20;96.70;;;;;;4933783;29;20051;-73
2022/10/28 04:30:09;;;;;;;15.57;5.45;;;16.20;96.70;;;;;;4929408;29;20837;-73
2022/10/28 04:32:37;;;;;;;10.10;4.82;;;16.20;96.70;;;;;;4930158;29;20044;-73
2022/10/28 04:35:11;;;;;;;9.43;4.47;;;16.30;96.70;;;;;;4929603;29;20154;-73
2022/10/28 04:37:39;;;;;;;11.15;5.10;;;16.30;96.70;;;;;;4929285;29;20118;-73
2022/10/28 04:40:08;;;;;;;7.93;4.85;;;16.30;96.70;;;;;;4928555;29;20467;-73
2022/10/28 04:42:36;;;;;;;12.00;4.93;;;16.20;96.70;;;;;;4928469;29;20103;-73
2022/10/28 04:45:07;;;;;;;10.90;6.07;;;16.20;96.70;;;;;;4932871;29;20102;-73
2022/10/28 04:47:35;;;;;;;10.55;4.95;;;16.20;96.70;;;;;;4942583;29;20134;-73
2022/10/28 04:50:03;;;;;;;12.30;4.68;;;16.20;96.70;;;;;;4927067;29;20052;-73
2022/10/28 04:52:31;;;;;;;12.75;5.32;;;16.20;96.70;;;;;;4941633;29;20074;-73
2022/10/28 04:54:59;;;;;;;9.90;5.43;;;16.10;96.70;;;;;;4933451;29;20138;-73
2022/10/28 04:57:27;;;;;;;11.25;5.28;;;16.10;96.70;;;;;;4976680;28;20059;-73
2022/10/28 04:59:54;;;;;;;7.80;5.38;;;16.10;96.70;;;;;;4935806;28;20126;-73
2022/10/28 05:02:24;;;;;;;12.63;5.10;;;16.10;96.70;;;;;;4970903;28;20102;-73
2022/10/28 05:04:52;;;;;;;13.43;5.45;;;16.10;96.70;;;;;;4932274;28;20050;-73
2022/10/28 05:07:20;;;;;;;13.77;5.75;;;16.00;96.70;;;;;;4929814;29;20064;-73
2022/10/28 05:09:50;;;;;;;13.55;6.00;;;16.00;96.70;;;;;;4930251;29;20051;-73
2022/10/28 05:12:18;;;;;;;13.25;5.65;;;16.00;96.70;;;;;;4922602;29;20570;-73
2022/10/28 05:14:46;;;;;;;12.50;6.15;;;16.00;96.70;;;;;;4931303;29;20055;-73
2022/10/28 05:17:19;;;;;;;13.65;6.57;;;15.80;96.70;;;;;;4929108;29;20122;-73
2022/10/28 05:19:48;;;;;;;11.63;6.20;;;15.80;96.70;;;;;;4922053;29;20035;-74
2022/10/28 05:22:16;;;;;;;17.00;6.32;;;15.90;96.70;;;;;;4940515;29;20104;-74
2022/10/28 05:24:44;;;;;;;11.50;5.72;;;15.90;96.70;;;;;;4931114;29;20039;-73
2022/10/28 05:27:12;;;;;;;13.32;6.53;;;15.90;96.70;;;;;;4926708;29;20411;-74
2022/10/28 05:29:40;;;;;;;11.43;5.93;;;15.90;96.70;;;;;;4936449;29;20043;-73
2022/10/28 05:32:08;;;;;;;14.68;5.85;;;15.90;96.70;;;;;;4944404;29;20078;-73
2022/10/28 05:34:36;;;;;;;13.52;5.97;;;15.90;96.70;;;;;;4930971;29;20039;-73
2022/10/28 05:37:05;;;;;;;14.02;6.13;;;15.80;96.70;;;;;;4928574;29;20565;-73
2022/10/28 05:39:33;;;;;;;14.35;5.60;;;15.70;96.70;;;;;;4945433;29;20046;-73
2022/10/28 05:42:01;;;;;;;13.35;6.10;;;15.70;96.70;;;;;;4940995;29;20135;-73
2022/10/28 05:44:29;;;;;;;10.68;5.90;;;15.70;96.70;;;;;;4928635;29;20052;-73
2022/10/28 05:46:57;;;;;;;16.33;6.93;;;15.70;96.70;;;;;;4942406;28;20048;-74
2022/10/28 05:49:25;;;;;;;13.07;5.88;;;15.70;96.70;;;;;;4937442;28;20162;-73
2022/10/28 05:51:53;;;;;;;18.85;6.07;;;15.70;96.70;;;;;;4926134;29;20070;-73
2022/10/28 05:54:22;;;;;;;16.88;6.05;;;15.60;96.70;;;;;;4939215;29;20571;-73
2022/10/28 05:56:50;;;;;;;13.25;6.22;;;15.60;96.70;;;;;;4942888;28;20047;-73
2022/10/28 05:59:18;;;;;;;19.33;5.88;;;15.70;96.70;;;;;;4939955;29;20053;-73
2022/10/28 06:01:46;;;;;;;14.80;5.22;;;15.60;96.70;;;;;;4941098;28;20042;-73
2022/10/28 06:04:14;;;;;;;11.25;5.88;;;15.60;96.70;;;;;;4927218;29;20051;-73
2022/10/28 06:06:43;;;;;;;10.88;5.53;;;15.60;96.70;;;;;;4928812;29;20040;-73
2022/10/28 06:09:11;;;;;;;11.77;5.18;;;15.60;96.70;;;;;;4935179;28;20501;-73
2022/10/28 06:11:41;;;;;;;11.40;5.40;;;15.50;96.70;;;;;;4931940;28;20177;-73
2022/10/28 06:14:13;;;;;;;8.73;5.25;;;15.60;96.70;;;;;;4932834;29;20039;-73
2022/10/28 06:16:42;;;;;;;9.48;5.10;;;15.50;96.70;;;;;;4932017;29;20035;-73
2022/10/28 06:19:10;;;;;;;11.63;5.93;;;15.50;96.70;;;;;;4934579;29;20058;-73
2022/10/28 06:21:38;;;;;;;12.82;4.90;;;15.50;96.70;;;;;;4940016;29;20039;-75
2022/10/28 06:24:07;;;;;;;12.75;4.93;;;15.50;96.70;;;;;;4937421;29;20048;-73
2022/10/28 06:26:42;;;;;;;12.88;5.35;;;15.50;96.70;;;;;;4927004;29;20560;-73
2022/10/28 06:29:10;;;;;;;14.75;5.80;;;15.60;96.70;;;;;;4928199;28;20058;-73
2022/10/28 06:31:38;;;;;;;11.52;5.10;;;15.70;96.70;;;;;;4930686;29;20558;-73
2022/10/28 06:34:07;;;;;;;13.25;6.05;;;15.70;96.70;;;;;;4934222;29;20406;-73
2022/10/28 06:36:35;;;;;;;15.75;6.32;;;15.70;96.70;;;;;;4929243;29;21468;-73
2022/10/28 06:39:04;;;;;;;16.52;8.02;;;15.80;96.70;;;;;;4937134;29;20047;-73
2022/10/28 06:41:32;;;;;;;20.98;7.60;;;15.90;96.70;;;;;;4956628;28;20106;-74
2022/10/28 06:44:03;;;;;;;20.30;8.55;;;15.80;96.70;;;;;;4944152;28;20139;-73
2022/10/28 06:46:31;;;;;;;23.88;8.88;;;15.90;96.70;;;;;;4932001;29;20039;-73
2022/10/28 06:49:02;;;;;;;20.65;9.35;;;15.90;96.70;;;;;;4934431;28;20458;-74
2022/10/28 06:51:30;;;;;;;18.92;9.18;;;16.00;96.70;;;;;;4938471;28;20098;-73
2022/10/28 06:54:00;;;;;;;23.60;9.55;;;16.10;96.70;;;;;;4953671;28;20070;-74
2022/10/28 06:56:28;;;;;;;18.33;7.80;;;16.10;96.70;;;;;;4925815;29;20131;-73
2022/10/28 06:58:56;;;;;;;22.73;8.70;;;16.20;96.70;;;;;;4946232;28;20038;-74
2022/10/28 07:01:25;;;;;;;16.10;8.63;;;16.30;96.70;;;;;;4960531;28;20401;-74
2022/10/28 07:03:53;;;;;;;18.38;8.30;;;16.30;96.70;;;;;;4942715;28;20050;-74
2022/10/28 07:06:21;;;;;;;22.63;9.18;;;16.40;96.70;;;;;;4934538;28;20043;-74
2022/10/28 07:08:50;;;;;;;18.35;8.35;;;16.40;96.70;;;;;;4946381;28;20043;-73
2022/10/28 07:11:18;;;;;;;19.00;7.80;;;16.40;96.70;;;;;;4946612;28;20149;-72
2022/10/28 07:13:46;;;;;;;15.18;7.20;;;16.50;96.70;;;;;;4930167;29;20644;-73
2022/10/28 07:16:15;;;;;;;15.32;7.35;;;16.50;96.70;;;;;;4947270;28;20470;-72
2022/10/28 07:18:45;;;;;;;15.43;7.03;;;16.50;96.70;;;;;;4928928;28;20055;-73
2022/10/28 07:21:13;;;;;;;15.45;7.55;;;16.50;96.70;;;;;;4964073;28;20490;-73
2022/10/28 07:23:41;;;;;;;15.35;7.28;;;16.60;96.70;;;;;;4932509;28;20051;-73
2022/10/28 07:26:09;;;;;;;16.15;7.55;;;16.60;96.70;;;;;;4953021;28;20070;-73
2022/10/28 07:28:37;;;;;;;16.55;7.60;;;16.60;96.70;;;;;;4957131;28;20568;-74
2022/10/28 07:31:05;;;;;;;17.40;7.20;;;16.60;96.70;;;;;;4940903;28;20505;-75
2022/10/28 07:33:33;;;;;;;17.55;7.47;;;16.70;96.70;;;;;;4937530;28;20438;-75
2022/10/28 07:36:04;;;;;;;13.15;6.63;;;16.80;96.70;;;;;;4951415;28;20536;-72
2022/10/28 07:38:32;;;;;;;14.93;6.53;;;16.80;96.70;;;;;;4929940;28;20141;-73
2022/10/28 07:41:04;;;;;;;15.18;6.47;;;16.70;96.70;;;;;;4948668;28;20098;-72
2022/10/28 07:43:35;;;;;;;14.80;5.90;;;16.80;96.70;;;;;;4930156;28;20051;-72
2022/10/28 07:46:05;;;;;;;14.45;6.28;;;16.90;96.70;;;;;;4929027;28;20050;-72
2022/10/28 07:48:36;;;;;;;14.55;5.95;;;16.90;96.70;;;;;;4946285;28;20047;-72
2022/10/28 07:51:06;;;;;;;13.23;6.15;;;17.00;96.70;;;;;;4931899;29;20409;-72
2022/10/28 07:53:35;;;;;;;10.35;5.93;;;17.10;96.70;;;;;;4946584;28;20411;-72
2022/10/28 07:56:05;;;;;;;14.00;6.43;;;17.20;96.70;;;;;;4928194;28;20534;-73
2022/10/28 07:58:33;;;;;;;19.80;8.90;;;17.20;96.70;;;;;;4929819;28;20050;-72
2022/10/28 08:01:02;;;;;;;20.98;11.30;;;17.30;96.70;;;;;;4945393;28;20113;-72
2022/10/28 08:03:30;;;;;;;13.75;7.93;;;17.40;96.70;;;;;;4943330;28;20063;-72
2022/10/28 08:06:12;;;;;;;20.40;8.18;;;17.50;96.70;;;;;;4952530;28;20051;-72
2022/10/28 08:08:40;;;;;;;17.60;8.63;;;17.50;96.70;;;;;;4933658;28;20160;-72
2022/10/28 08:11:09;;;;;;;17.35;10.25;;;17.60;96.70;;;;;;4955623;28;20122;-73
2022/10/28 08:13:37;;;;;;;18.27;8.40;;;17.70;96.70;;;;;;4949011;28;20058;-72
2022/10/28 08:16:07;;;;;;;18.23;7.30;;;17.80;96.70;;;;;;4945590;28;20039;-72
2022/10/28 08:18:36;;;;;;;25.80;8.77;;;17.90;96.70;;;;;;4941544;28;20055;-72
2022/10/28 08:21:07;;;;;;;15.77;8.05;;;18.00;96.70;;;;;;4942542;28;20047;-74
2022/10/28 08:23:37;;;;;;;15.43;7.47;;;18.00;96.70;;;;;;4937728;28;20410;-72
2022/10/28 08:26:05;;;;;;;12.60;6.82;;;18.10;96.70;;;;;;4942379;28;20307;-72
2022/10/28 08:28:33;;;;;;;15.77;7.43;;;18.20;96.70;;;;;;4946088;28;20615;-73
2022/10/28 08:31:02;;;;;;;16.88;6.93;;;18.20;96.70;;;;;;4933591;29;20106;-73
2022/10/28 08:33:38;;;;;;;14.90;8.77;;;18.20;96.70;;;;;;4933703;28;20064;-72
2022/10/28 08:36:09;;;;;;;13.20;6.93;;;18.30;96.70;;;;;;4927849;28;20520;-73
2022/10/28 08:38:37;;;;;;;12.93;7.80;;;18.40;96.70;;;;;;4951083;28;20045;-73
2022/10/28 08:41:28;;;;;;;15.32;7.80;;;18.40;96.70;;;;;;4949091;28;20079;-75
2022/10/28 08:44:20;;;;;;;13.15;7.63;;;18.50;96.70;;;;;;4904146;28;20051;-72
2022/10/28 08:46:58;;;;;;;15.60;7.53;;;18.70;96.70;;;;;;4933712;28;20059;-73
2022/10/28 08:49:29;;;;;;;15.68;9.05;;;18.80;96.70;;;;;;4951160;28;20053;-73
2022/10/28 08:52:23;;;;;;;20.10;7.95;;;18.90;96.70;;;;;;4938349;28;20882;-72
2022/10/28 08:55:17;;;;;;;15.07;7.65;;;19.00;96.70;;;;;;4942321;28;20094;-73
2022/10/28 08:57:50;;;;;;;13.60;7.10;;;19.20;96.70;;;;;;4959328;28;20054;-72
2022/10/28 09:00:23;;;;;;;12.73;7.10;;;19.30;96.70;;;;;;4957104;28;20051;-72
2022/10/28 09:03:04;;;;;;;13.73;7.63;;;19.50;96.70;;;;;;4948237;28;20047;-73
2022/10/28 09:05:32;;;;;;;14.57;7.00;;;19.50;96.70;;;;;;4948964;28;20050;-72
2022/10/28 09:08:02;;;;;;;14.40;7.18;;;19.60;96.70;;;;;;4943667;28;20059;-72
2022/10/28 09:10:48;;;;;;;21.80;7.95;;;19.70;96.70;;;;;;4931530;28;20051;-73
2022/10/28 09:13:22;;;;;;;11.75;7.25;;;19.80;96.70;;;;;;4918296;29;20057;-72
2022/10/28 09:15:59;;;;;;;11.77;7.38;;;19.80;96.70;;;;;;4948857;28;20109;-73
2022/10/28 09:18:47;;;;;;;14.93;7.05;;;19.90;96.70;;;;;;4950012;28;20042;-73
2022/10/28 09:21:19;;;;;;;14.88;7.45;;;20.00;96.70;;;;;;4961143;28;20530;-73
2022/10/28 09:23:54;;;;;;;13.27;6.60;;;20.10;96.70;;;;;;4951268;28;20078;-73
2022/10/28 09:26:34;;;;;;;12.00;6.68;;;20.20;96.70;;;;;;4935895;28;20046;-72
2022/10/28 09:29:19;;;;;;;19.23;7.85;;;20.30;96.70;;;;;;4948224;28;20062;-72
2022/10/28 09:31:51;;;;;;;14.82;8.05;;;20.40;96.70;;;;;;4953839;28;20401;-72
2022/10/28 09:34:29;;;;;;;17.48;7.20;;;20.50;96.70;;;;;;4946629;28;20070;-73
2022/10/28 09:37:03;;;;;;;17.00;7.32;;;20.60;96.70;;;;;;4948648;28;20062;-72
2022/10/28 09:39:40;;;;;;;16.85;8.23;;;20.60;96.70;;;;;;4960563;28;20542;-72
2022/10/28 09:42:16;;;;;;;12.70;7.47;;;20.70;96.70;;;;;;4963805;28;20102;-73
2022/10/28 09:44:48;;;;;;;13.43;7.45;;;20.80;96.70;;;;;;4927152;29;20102;-72
2022/10/28 09:47:20;;;;;;;21.65;7.95;;;20.90;96.70;;;;;;4914690;29;20059;-72
2022/10/28 09:49:50;;;;;;;18.58;7.38;;;21.00;96.70;;;;;;4925136;28;20043;-73
2022/10/28 09:52:22;;;;;;;13.18;7.78;;;21.10;96.70;;;;;;4961914;28;20046;-73
2022/10/28 09:54:53;;;;;;;13.82;7.68;;;21.30;96.70;;;;;;4950847;28;20055;-73
2022/10/28 09:57:23;;;;;;;18.90;8.32;;;21.40;96.70;;;;;;4941011;29;20055;-73
2022/10/28 09:59:52;;;;;;;15.63;7.53;;;21.50;96.70;;;;;;4948335;28;20130;-73
2022/10/28 10:02:26;;;;;;;17.80;7.43;;;21.60;96.70;;;;;;4947186;28;20054;-73
2022/10/28 10:04:56;;;;;;;16.90;7.82;;;21.70;96.70;;;;;;4955891;28;20046;-73
2022/10/28 10:07:32;;;;;;;16.73;7.47;;;21.70;96.70;;;;;;4953494;28;20561;-72
2022/10/28 10:10:09;;;;;;;13.40;7.10;;;21.80;96.70;;;;;;4955061;28;20541;-72
2022/10/28 10:12:38;;;;;;;16.10;7.18;;;21.90;96.70;;;;;;4932422;28;20051;-73
2022/10/28 10:15:13;;;;;;;16.55;7.38;;;22.00;96.70;;;;;;4933606;28;20145;-73
2022/10/28 10:17:44;;;;;;;18.40;8.63;;;22.00;96.70;;;;;;4930400;29;20695;-72
2022/10/28 10:20:14;;;;;;;16.98;7.75;;;22.10;96.70;;;;;;4964665;28;20086;-72
2022/10/28 10:22:44;;;;;;;15.68;8.23;;;22.20;96.70;;;;;;4938488;28;20043;-72
2022/10/28 10:25:28;;;;;;;14.93;7.03;;;22.30;96.70;;;;;;4946742;28;20186;-72
2022/10/28 10:27:59;;;;;;;15.32;7.55;;;22.40;96.70;;;;;;4938557;29;20541;-72
2022/10/28 10:30:30;;;;;;;16.42;7.70;;;22.50;96.70;;;;;;4929321;29;20418;-72
2022/10/28 10:32:59;;;;;;;15.73;7.00;;;22.60;96.70;;;;;;4958091;28;20047;-72
2022/10/28 10:35:29;;;;;;;12.75;7.05;;;22.80;96.70;;;;;;4937129;28;20050;-72
2022/10/28 10:37:59;;;;;;;20.73;7.97;;;23.00;96.70;;;;;;4936131;28;20058;-72
2022/10/28 10:40:30;;;;;;;12.68;7.15;;;23.20;96.70;;;;;;4952981;28;20453;-72
2022/10/28 10:43:29;;;;;;;13.82;6.55;;;23.20;96.70;;;;;;4961791;28;20047;-72
2022/10/28 10:46:02;;;;;;;13.60;6.53;;;23.20;96.70;;;;;;4966461;28;20046;-72
2022/10/28 10:48:33;;;;;;;16.23;7.07;;;23.20;96.70;;;;;;4958144;28;20588;-72
2022/10/28 10:51:06;;;;;;;13.23;7.07;;;23.30;96.70;;;;;;4929921;28;20045;-73
2022/10/28 10:53:35;;;;;;;13.50;6.70;;;23.40;96.70;;;;;;4946867;28;20945;-72
2022/10/28 10:56:07;;;;;;;12.35;6.30;;;23.40;96.70;;;;;;4951159;28;20047;-73
2022/10/28 10:58:38;;;;;;;14.48;7.03;;;23.60;96.70;;;;;;4950852;28;20050;-72
2022/10/28 11:01:08;;;;;;;13.50;5.95;;;23.60;96.70;;;;;;4955493;28;20506;-73
2022/10/28 11:03:40;;;;;;;15.02;6.05;;;23.70;96.70;;;;;;4944969;28;20074;-72
2022/10/28 11:06:20;;;;;;;12.13;6.43;;;23.90;96.70;;;;;;4942271;28;20129;-72
2022/10/28 11:08:57;;;;;;;10.27;5.82;;;23.90;96.70;;;;;;4930755;28;20038;-72
2022/10/28 11:11:34;;;;;;;11.93;6.00;;;24.00;96.70;;;;;;4974829;28;20058;-72
2022/10/28 11:14:07;;;;;;;12.88;5.88;;;24.10;96.70;;;;;;4955443;28;20047;-72
2022/10/28 11:16:47;;;;;;;13.52;6.28;;;24.10;96.70;;;;;;4924290;28;20059;-72
2022/10/28 11:19:20;;;;;;;13.27;6.18;;;24.30;96.70;;;;;;4932233;28;20050;-72
2022/10/28 11:22:10;;;;;;;11.80;5.97;;;24.30;96.70;;;;;;4947335;28;20046;-73
2022/10/28 11:25:05;;;;;;;16.45;5.65;;;24.30;96.70;;;;;;4944840;28;20051;-73
2022/10/28 11:27:47;;;;;;;10.13;5.90;;;24.30;96.70;;;;;;4944927;28;20043;-72
2022/10/28 11:30:30;;;;;;;10.13;5.55;;;24.30;96.70;;;;;;4941921;28;20047;-73
2022/10/28 11:33:08;;;;;;;15.25;6.25;;;24.40;96.70;;;;;;4957494;28;20090;-72
2022/10/28 11:36:04;;;;;;;12.13;5.82;;;24.50;96.70;;;;;;4909868;29;20055;-73
2022/10/28 11:38:56;;;;;;;14.50;6.72;;;24.50;96.70;;;;;;4928316;29;20062;-73
2022/10/28 11:41:36;;;;;;;13.25;5.40;;;24.40;96.70;;;;;;4941931;28;20051;-72
2022/10/28 11:44:17;;;;;;;9.70;4.97;;;24.40;96.70;;;;;;4924850;29;20119;-72
2022/10/28 11:46:56;;;;;;;10.05;4.85;;;24.50;96.70;;;;;;4928436;28;20106;-72
2022/10/28 11:50:16;;;;;;;12.00;5.22;;;24.60;96.70;;;;;;4928199;28;20138;-72
2022/10/28 11:53:16;;;;;;;8.95;5.05;;;24.70;96.70;;;;;;4928221;28;20438;-71
2022/10/28 11:55:51;;;;;;;13.07;5.05;;;24.80;96.70;;;;;;4946087;28;20054;-72
2022/10/28 11:58:30;;;;;;;11.32;4.70;;;24.90;96.70;;;;;;4928568;28;20050;-71
2022/10/28 12:01:22;;;;;;;10.82;4.78;;;25.00;96.70;;;;;;4908460;29;20071;-71
2022/10/28 12:04:16;;;;;;;9.77;4.70;;;25.00;96.70;;;;;;4944724;28;20067;-71
2022/10/28 12:07:09;;;;;;;10.98;5.30;;;25.00;96.70;;;;;;4924235;28;20070;-71
2022/10/28 12:09:55;;;;;;;8.80;4.82;;;25.00;96.70;;;;;;4947364;28;20039;-71
2022/10/28 12:12:32;;;;;;;12.33;5.50;;;25.10;96.70;;;;;;4935210;29;20091;-72
2022/10/28 12:15:16;;;;;;;13.23;5.40;;;25.20;96.70;;;;;;4963370;28;20055;-72
2022/10/28 12:17:52;;;;;;;8.95;4.55;;;25.20;96.70;;;;;;4951144;28;20051;-71
2022/10/28 12:20:25;;;;;;;8.88;5.30;;;25.30;96.70;;;;;;4946401;28;20070;-72
2022/10/28 12:22:55;;;;;;;11.38;4.95;;;25.50;96.70;;;;;;4955126;28;20055;-72
2022/10/28 12:25:27;;;;;;;11.88;5.88;;;25.50;96.70;;;;;;4944950;28;20126;-72
2022/10/28 12:28:00;;;;;;;12.45;5.05;;;25.50;96.70;;;;;;4945617;28;20093;-72
2022/10/28 12:30:31;;;;;;;9.43;4.53;;;25.50;96.70;;;;;;4944166;28;20520;-75
2022/10/28 12:33:05;;;;;;;12.25;5.57;;;25.60;96.70;;;;;;4956548;28;20141;-71
2022/10/28 12:35:40;;;;;;;13.32;5.30;;;25.70;96.70;;;;;;4939105;28;20039;-72
2022/10/28 12:38:16;;;;;;;13.25;5.50;;;25.80;96.70;;;;;;4952561;28;20051;-72
2022/10/28 12:40:48;;;;;;;12.65;5.63;;;25.80;96.70;;;;;;4950265;28;20106;-72
2022/10/28 12:43:23;;;;;;;13.13;5.40;;;25.80;96.70;;;;;;4932087;29;20066;-72
2022/10/28 12:45:55;;;;;;;14.02;6.03;;;25.80;96.70;;;;;;4960242;28;20505;-73
2022/10/28 12:48:31;;;;;;;17.42;6.63;;;25.90;96.70;;;;;;4961366;28;20747;-73
2022/10/28 12:51:08;;;;;;;12.32;6.07;;;26.00;96.70;;;;;;4931226;29;20105;-72
2022/10/28 12:53:44;;;;;;;12.27;5.78;;;26.10;96.70;;;;;;4948658;28;20054;-72
2022/10/28 12:56:18;;;;;;;13.65;6.35;;;26.10;96.70;;;;;;4951307;28;20054;-72
2022/10/28 12:58:53;;;;;;;15.25;6.55;;;26.10;96.70;;;;;;4966485;28;20050;-72
2022/10/28 13:01:26;;;;;;;13.02;6.85;;;26.10;96.70;;;;;;4940092;29;20058;-73
2022/10/28 13:03:56;;;;;;;11.57;6.10;;;25.90;96.70;;;;;;4947402;28;20057;-72
2022/10/28 13:06:43;;;;;;;11.07;6.90;;;25.90;96.70;;;;;;4921706;28;20043;-72